Time;durP1;ratioP1;P1;durP2;ratioP2;P2;SDS_P1;SDS_P2;PMS_P1;PMS_P2;Temp;Humidity;BMP_temperature;BMP_pressure;BME280_temperature;BME280_humidity;BME280_pressure;Samples;Min_cycle;Max_cycle;Signal;HPM_P1;HPM_P2
2022/11/22 00:01:33;;;;;;;29.20;18.10;;;;;;;1.91;100.00;96643.60;107965;1266;70949;-72
2022/11/22 00:04:03;;;;;;;30.40;18.70;;;;;;;1.93;100.00;96641.79;108059;1262;69873;-71
2022/11/22 00:06:32;;;;;;;21.20;14.70;;;;;;;1.95;100.00;96638.61;108539;1263;69141;-71
2022/11/22 00:09:01;;;;;;;28.80;18.00;;;;;;;1.97;100.00;96638.99;107994;1262;58905;-70
2022/11/22 00:11:31;;;;;;;28.10;17.40;;;;;;;1.97;100.00;96637.94;107990;1262;58956;-70
2022/11/22 00:14:00;;;;;;;28.60;17.40;;;;;;;1.96;100.00;96638.36;108054;1266;70554;-70
2022/11/22 00:16:29;;;;;;;24.10;17.00;;;;;;;1.94;100.00;96637.93;107966;1265;69241;-70
2022/11/22 00:18:59;;;;;;;27.10;17.10;;;;;;;1.95;100.00;96636.39;108005;1265;69144;-70
2022/11/22 00:21:28;;;;;;;27.70;19.10;;;;;;;1.95;100.00;96641.35;108027;1263;58903;-72
2022/11/22 00:23:57;;;;;;;29.30;19.80;;;;;;;1.94;100.00;96643.25;107953;1263;58843;-72
2022/11/22 00:26:27;;;;;;;26.10;17.90;;;;;;;1.94;100.00;96641.20;108199;1265;70627;-71
2022/11/22 00:28:57;;;;;;;21.60;14.50;;;;;;;1.94;100.00;96635.86;108029;1265;67477;-71
2022/11/22 00:31:26;;;;;;;;;;;;;;;1.97;100.00;96636.08;108004;1266;69275;-70
2022/11/22 00:33:56;;;;;;;31.90;19.30;;;;;;;1.99;100.00;96634.59;108027;1262;59242;-70
2022/11/22 00:36:26;;;;;;;26.60;17.80;;;;;;;2.01;100.00;96632.42;107955;1266;58960;-70
2022/11/22 00:38:56;;;;;;;28.40;19.40;;;;;;;2.04;100.00;96639.18;108000;1265;70645;-70
2022/11/22 00:41:26;;;;;;;28.90;18.10;;;;;;;2.05;100.00;96634.98;108004;1264;68787;-70
2022/11/22 00:43:56;;;;;;;27.10;18.00;;;;;;;2.07;100.00;96635.21;107998;1265;68408;-71
2022/11/22 00:46:25;;;;;;;;;;;;;;;2.07;100.00;96631.98;108030;1264;58886;-71
2022/11/22 00:48:55;;;;;;;32.40;21.60;;;;;;;2.06;100.00;96627.73;107992;1266;58852;-70
2022/11/22 00:51:25;;;;;;;39.90;24.90;;;;;;;2.05;100.00;96626.71;107991;1265;70613;-70
2022/11/22 00:53:55;;;;;;;;;;;;;;;2.04;100.00;96628.32;107987;1263;68448;-70
2022/11/22 00:56:25;;;;;;;43.30;27.50;;;;;;;2.02;100.00;96625.50;108035;1264;68953;-70
2022/11/22 00:58:54;;;;;;;44.90;30.70;;;;;;;2.00;100.00;96628.04;107999;1262;58911;-70
2022/11/22 01:01:26;;;;;;;42.80;28.90;;;;;;;1.97;100.00;96632.42;108080;1260;58967;-70
2022/11/22 01:03:56;;;;;;;32.70;20.60;;;;;;;1.97;100.00;96627.83;108026;1260;70923;-70
2022/11/22 01:06:25;;;;;;;29.90;18.70;;;;;;;1.95;100.00;96629.29;107981;1266;69511;-70
2022/11/22 01:08:55;;;;;;;29.60;20.10;;;;;;;1.95;100.00;96630.02;107950;1265;69784;-70
2022/11/22 01:11:25;;;;;;;31.40;21.10;;;;;;;1.96;100.00;96628.94;108001;1266;59003;-71
2022/11/22 01:13:55;;;;;;;35.40;21.80;;;;;;;1.97;100.00;96632.09;107978;1262;58891;-70
2022/11/22 01:16:24;;;;;;;33.20;22.00;;;;;;;1.99;100.00;96627.21;108070;1266;70418;-70
2022/11/22 01:18:55;;;;;;;33.70;22.30;;;;;;;2.01;100.00;96626.59;108013;1265;69148;-70
2022/11/22 01:21:26;;;;;;;33.60;21.60;;;;;;;2.03;100.00;96620.30;107995;1265;69890;-70
2022/11/22 01:23:57;;;;;;;33.70;22.20;;;;;;;2.03;100.00;96616.70;108012;1262;58894;-70
2022/11/22 01:26:27;;;;;;;34.70;23.30;;;;;;;2.01;100.00;96614.52;108034;1266;58887;-70
2022/11/22 01:28:56;;;;;;;36.50;23.80;;;;;;;1.99;100.00;96618.78;107976;1263;70730;-70
2022/11/22 01:31:26;;;;;;;38.00;24.20;;;;;;;1.99;100.00;96618.46;107794;1262;68128;-70
2022/11/22 01:33:57;;;;;;;28.60;17.80;;;;;;;1.98;100.00;96619.32;107969;1265;68685;-70
2022/11/22 01:36:28;;;;;;;35.90;22.60;;;;;;;1.98;100.00;96622.81;108018;1263;58960;-70
2022/11/22 01:38:57;;;;;;;28.00;18.30;;;;;;;1.95;100.00;96622.59;107999;1262;58946;-70
2022/11/22 01:41:27;;;;;;;26.30;15.90;;;;;;;1.96;100.00;96622.91;108032;1264;70411;-70
2022/11/22 01:43:57;;;;;;;;;;;;;;;1.94;100.00;96626.08;108038;1263;68492;-70
2022/11/22 01:46:27;;;;;;;22.20;14.10;;;;;;;1.93;100.00;96628.52;108028;1265;69876;-70
2022/11/22 01:49:06;;;;;;;24.90;15.80;;;;;;;1.93;100.00;96624.09;108025;1260;58944;-70
2022/11/22 01:51:45;;;;;;;24.70;15.10;;;;;;;1.92;100.00;96628.41;107982;1263;58962;-71
2022/11/22 01:54:18;;;;;;;25.70;16.50;;;;;;;1.92;100.00;96624.84;108046;1262;71057;-71
2022/11/22 01:56:57;;;;;;;24.00;14.90;;;;;;;1.92;100.00;96626.86;108044;1266;69001;-71
2022/11/22 01:59:32;;;;;;;25.00;15.60;;;;;;;1.94;100.00;96626.97;108133;1262;69202;-71
2022/11/22 02:02:02;;;;;;;25.60;15.60;;;;;;;1.95;100.00;96632.93;108013;1265;58953;-71
2022/11/22 02:04:34;;;;;;;23.70;15.40;;;;;;;1.96;100.00;96640.08;108015;1263;58960;-71
2022/11/22 02:07:13;;;;;;;22.40;13.40;;;;;;;1.97;100.00;96641.72;107979;1262;71232;-71
2022/11/22 02:09:45;;;;;;;26.00;17.20;;;;;;;1.94;100.00;96645.66;107978;1266;69212;-71
2022/11/22 02:12:16;;;;;;;24.30;16.50;;;;;;;1.93;100.00;96652.74;107983;1266;68302;-71
2022/11/22 02:14:47;;;;;;;23.00;15.60;;;;;;;1.93;100.00;96654.29;107984;1265;58896;-71
2022/11/22 02:17:19;;;;;;;22.10;15.30;;;;;;;1.93;100.00;96655.54;107997;1266;58846;-71
2022/11/22 02:19:51;;;;;;;20.50;12.80;;;;;;;1.92;100.00;96653.66;108017;1260;69509;-71
2022/11/22 02:22:27;;;;;;;23.10;14.60;;;;;;;1.92;100.00;96654.52;107997;1260;69110;-71
2022/11/22 02:25:00;;;;;;;23.60;16.50;;;;;;;1.90;100.00;96658.10;107993;1262;67880;-71
2022/11/22 02:27:31;;;;;;;21.00;15.30;;;;;;;1.88;100.00;96658.84;108033;1266;58961;-71
2022/11/22 02:30:01;;;;;;;21.00;14.50;;;;;;;1.86;100.00;96661.20;108003;1260;58953;-71
2022/11/22 02:32:31;;;;;;;20.00;14.40;;;;;;;1.83;100.00;96659.80;107998;1262;70578;-71
2022/11/22 02:35:13;;;;;;;23.00;15.30;;;;;;;1.80;100.00;96658.73;108146;1266;69156;-72
2022/11/22 02:37:47;;;;;;;23.00;14.10;;;;;;;1.79;100.00;96659.47;108058;1266;69164;-71
2022/11/22 02:40:19;;;;;;;19.80;13.30;;;;;;;1.79;100.00;96663.10;108125;1266;58954;-70
2022/11/22 02:43:02;;;;;;;20.60;13.60;;;;;;;1.79;100.00;96664.49;108020;1263;58923;-72
2022/11/22 02:45:33;;;;;;;21.40;13.90;;;;;;;1.77;100.00;96665.57;108013;1264;70421;-71
2022/11/22 02:48:09;;;;;;;21.30;14.20;;;;;;;1.76;100.00;96665.48;107990;1265;69217;-72
2022/11/22 02:50:39;;;;;;;21.40;14.50;;;;;;;1.75;100.00;96666.05;108031;1263;69899;-71
2022/11/22 02:53:10;;;;;;;;;;;;;;;1.74;100.00;96674.11;108025;1266;58958;-71
2022/11/22 02:55:41;;;;;;;21.80;13.60;;;;;;;1.73;100.00;96674.71;108024;1262;58947;-71
2022/11/22 02:58:12;;;;;;;17.30;11.70;;;;;;;1.72;100.00;96676.33;107996;1262;70169;-71
2022/11/22 03:00:42;;;;;;;17.20;13.40;;;;;;;1.72;100.00;96671.86;107982;1266;69682;-71
2022/11/22 03:03:12;;;;;;;19.40;13.20;;;;;;;1.72;100.00;96670.15;108010;1264;69236;-71
2022/11/22 03:05:42;;;;;;;19.50;13.40;;;;;;;1.72;100.00;96667.60;108049;1264;58956;-72
2022/11/22 03:08:12;;;;;;;22.70;14.10;;;;;;;1.73;100.00;96665.29;108074;1263;58853;-69
2022/11/22 03:10:43;;;;;;;20.50;12.90;;;;;;;1.73;100.00;96666.83;108018;1260;70560;-70
2022/11/22 03:13:14;;;;;;;14.10;10.90;;;;;;;1.74;100.00;96670.92;108034;1262;69591;-70
2022/11/22 03:15:47;;;;;;;17.50;10.90;;;;;;;1.77;100.00;96677.14;107983;1262;69252;-70
2022/11/22 03:18:16;;;;;;;18.00;12.90;;;;;;;1.78;100.00;96682.70;107989;1261;58872;-70
2022/11/22 03:20:47;;;;;;;16.00;11.40;;;;;;;1.80;100.00;96684.85;108043;1263;58970;-71
2022/11/22 03:23:17;;;;;;;15.90;11.90;;;;;;;1.81;100.00;96681.21;108031;1265;71081;-71
2022/11/22 03:25:48;;;;;;;15.20;11.80;;;;;;;1.82;100.00;96674.14;108017;1266;68513;-72
2022/11/22 03:28:23;;;;;;;15.80;11.00;;;;;;;1.84;100.00;96672.80;108126;1263;69860;-71
2022/11/22 03:30:54;;;;;;;18.90;12.60;;;;;;;1.85;100.00;96670.86;108268;1263;58976;-73
2022/11/22 03:33:23;;;;;;;18.20;12.30;;;;;;;1.87;100.00;96671.30;107991;1262;58901;-72
2022/11/22 03:35:57;;;;;;;16.00;11.20;;;;;;;1.88;100.00;96673.30;108019;1262;70536;-72
2022/11/22 03:38:27;;;;;;;14.50;9.10;;;;;;;1.89;100.00;96671.52;108005;1266;68232;-69
2022/11/22 03:40:56;;;;;;;15.00;10.70;;;;;;;1.90;100.00;96673.40;107978;1266;69776;-70
2022/11/22 03:43:26;;;;;;;16.80;11.10;;;;;;;1.90;100.00;96674.08;107990;1266;58942;-70
2022/11/22 03:45:56;;;;;;;;;;;;;;;1.90;100.00;96674.95;107993;1262;58886;-70
2022/11/22 03:48:25;;;;;;;18.60;11.30;;;;;;;1.88;100.00;96676.38;108021;1263;68831;-73
2022/11/22 03:51:05;;;;;;;16.40;11.00;;;;;;;1.87;100.00;96677.51;108052;1262;69158;-72
2022/11/22 03:53:34;;;;;;;17.00;12.10;;;;;;;1.85;100.00;96672.93;108041;1260;69281;-71
2022/11/22 03:56:05;;;;;;;17.80;11.80;;;;;;;1.85;100.00;96675.70;107987;1263;58943;-71
2022/11/22 03:58:34;;;;;;;16.10;11.10;;;;;;;1.84;100.00;96677.61;108017;1266;58896;-71
2022/11/22 04:01:05;;;;;;;17.60;11.50;;;;;;;1.83;100.00;96683.15;107998;1260;69878;-71
2022/11/22 04:03:40;;;;;;;19.80;13.10;;;;;;;1.82;100.00;96681.88;107969;1265;69120;-71
2022/11/22 04:06:10;;;;;;;17.20;11.70;;;;;;;1.80;100.00;96685.02;107946;1265;69742;-71
2022/11/22 04:08:38;;;;;;;18.50;12.30;;;;;;;1.78;100.00;96684.76;107952;1264;58957;-71
2022/11/22 04:11:07;;;;;;;16.90;11.70;;;;;;;1.78;100.00;96686.20;107990;1264;58956;-71
2022/11/22 04:16:26;;;;;;;17.70;12.00;;;;;;;1.77;100.00;96688.60;108018;1262;68477;-71
2022/11/22 04:18:56;;;;;;;17.80;12.70;;;;;;;1.77;100.00;96686.55;108017;1266;69085;-71
2022/11/22 04:21:34;;;;;;;19.20;12.40;;;;;;;1.76;100.00;96682.84;108031;1264;58881;-71
2022/11/22 04:26:56;;;;;;;18.60;12.50;;;;;;;1.74;100.00;96680.88;108000;1265;70408;-71
2022/11/22 04:29:25;;;;;;;19.10;13.90;;;;;;;1.74;100.00;96684.65;108096;1262;69828;-71
2022/11/22 04:34:43;;;;;;;22.40;15.40;;;;;;;1.73;100.00;96696.73;108037;1265;58896;-71
2022/11/22 04:37:13;;;;;;;21.20;14.00;;;;;;;1.72;100.00;96704.48;108050;1264;58952;-71
2022/11/22 04:39:44;;;;;;;16.60;12.20;;;;;;;1.70;100.00;96709.73;108013;1265;69987;-71
2022/11/22 04:45:01;;;;;;;20.10;13.60;;;;;;;1.65;100.00;96710.99;108033;1264;69312;-71
2022/11/22 04:53:06;;;;;;;16.90;11.50;;;;;;;1.60;100.00;96710.25;108020;1266;70539;-71
2022/11/22 04:55:35;;;;;;;18.30;12.80;;;;;;;1.58;100.00;96714.66;108363;1263;68284;-69
2022/11/22 04:58:05;;;;;;;19.00;12.30;;;;;;;1.56;100.00;96715.44;108312;1264;69420;-71
2022/11/22 05:00:35;;;;;;;17.20;12.40;;;;;;;1.54;100.00;96718.59;108085;1262;58964;-71
2022/11/22 05:03:05;;;;;;;17.90;12.40;;;;;;;1.52;100.00;96713.33;108039;1266;58941;-71
2022/11/22 05:05:37;;;;;;;16.80;11.40;;;;;;;1.51;100.00;96719.43;108035;1262;70630;-71
2022/11/22 05:08:08;;;;;;;17.50;12.00;;;;;;;1.48;100.00;96722.82;108050;1266;69097;-71
2022/11/22 05:10:56;;;;;;;;;;;;;;;1.45;100.00;96722.98;108033;1265;69219;-70
2022/11/22 05:13:38;;;;;;;16.40;11.20;;;;;;;1.39;100.00;96724.45;107981;1265;58909;-71
2022/11/22 05:16:11;;;;;;;21.00;13.40;;;;;;;1.34;100.00;96723.31;107997;1261;58962;-71
2022/11/22 05:18:41;;;;;;;17.80;12.40;;;;;;;1.29;100.00;96723.40;108018;1260;69835;-70
2022/11/22 05:21:13;;;;;;;17.70;11.80;;;;;;;1.23;100.00;96725.36;108009;1260;69315;-71
2022/11/22 05:23:54;;;;;;;16.80;11.70;;;;;;;1.19;100.00;96732.08;107986;1262;68448;-70
2022/11/22 05:26:27;;;;;;;16.90;11.30;;;;;;;1.14;100.00;96734.93;107993;1266;58952;-70
2022/11/22 05:28:59;;;;;;;16.20;12.00;;;;;;;1.08;100.00;96734.48;107967;1262;58847;-71
2022/11/22 05:31:29;;;;;;;18.10;11.70;;;;;;;1.03;100.00;96726.66;108011;1265;70593;-71
2022/11/22 05:33:59;;;;;;;18.60;12.20;;;;;;;1.00;100.00;96726.60;108012;1266;68291;-72
2022/11/22 05:36:31;;;;;;;19.40;13.50;;;;;;;0.98;100.00;96729.27;108049;1264;68971;-71
2022/11/22 05:39:02;;;;;;;16.80;13.00;;;;;;;0.98;100.00;96729.80;108065;1260;58894;-71
2022/11/22 05:41:31;;;;;;;25.10;16.80;;;;;;;0.97;100.00;96727.59;108012;1264;58923;-71
2022/11/22 05:44:00;;;;;;;25.10;16.30;;;;;;;0.98;100.00;96731.52;108002;1266;69825;-71
2022/11/22 05:46:30;;;;;;;22.20;14.80;;;;;;;0.94;100.00;96728.59;107968;1262;69617;-71
2022/11/22 05:48:58;;;;;;;25.00;15.00;;;;;;;0.92;100.00;96735.21;108067;1262;68261;-71
2022/11/22 05:51:30;;;;;;;26.00;17.20;;;;;;;0.88;100.00;96740.02;107987;1265;58950;-71
2022/11/22 05:54:03;;;;;;;23.70;15.60;;;;;;;0.86;100.00;96741.34;108036;1265;58894;-71
2022/11/22 05:56:32;;;;;;;24.40;16.40;;;;;;;0.82;100.00;96741.16;107977;1266;71194;-71
2022/11/22 05:59:02;;;;;;;22.90;15.60;;;;;;;0.79;100.00;96746.09;108266;1262;70062;-71
2022/11/22 06:01:31;;;;;;;23.80;15.30;;;;;;;0.76;100.00;96740.71;108230;1266;68710;-71
2022/11/22 06:04:01;;;;;;;22.20;15.00;;;;;;;0.75;100.00;96740.77;108073;1264;58866;-71
2022/11/22 06:06:31;;;;;;;22.50;14.00;;;;;;;0.74;100.00;96739.95;108022;1262;58859;-71
2022/11/22 06:09:00;;;;;;;23.40;14.90;;;;;;;0.75;100.00;96740.27;108007;1262;70601;-71
2022/11/22 06:11:30;;;;;;;26.10;16.70;;;;;;;0.75;100.00;96742.50;107966;1265;69149;-71
2022/11/22 06:14:03;;;;;;;29.70;17.60;;;;;;;0.74;100.00;96742.89;107991;1263;69895;-71
2022/11/22 06:16:32;;;;;;;23.00;16.70;;;;;;;0.73;100.00;96747.35;108045;1262;58942;-71
2022/11/22 06:19:00;;;;;;;33.80;20.10;;;;;;;0.75;100.00;96750.73;107808;1265;58862;-71
2022/11/22 06:21:29;;;;;;;29.20;17.60;;;;;;;0.74;100.00;96748.39;108054;1264;70538;-71
2022/11/22 06:23:59;;;;;;;40.90;27.10;;;;;;;0.73;100.00;96748.41;108002;1264;69518;-71
2022/11/22 06:26:28;;;;;;;41.20;27.50;;;;;;;0.72;100.00;96755.46;108019;1258;68238;-71
2022/11/22 06:29:04;;;;;;;37.40;23.50;;;;;;;0.74;100.00;96761.55;108023;1262;58952;-71
2022/11/22 06:31:33;;;;;;;38.80;24.70;;;;;;;0.79;100.00;96763.27;108025;1263;58916;-71
2022/11/22 06:34:02;;;;;;;40.60;25.20;;;;;;;0.84;100.00;96764.73;108015;1260;70938;-70
2022/11/22 06:36:33;;;;;;;36.10;23.30;;;;;;;0.90;100.00;96763.09;107973;1262;69314;-70
2022/11/22 06:39:02;;;;;;;37.00;23.00;;;;;;;0.98;100.00;96764.98;108000;1265;69205;-70
2022/11/22 06:41:34;;;;;;;42.20;24.90;;;;;;;1.08;100.00;96767.79;107994;1262;58913;-70
2022/11/22 06:44:06;;;;;;;38.80;23.90;;;;;;;1.22;100.00;96762.70;108010;1262;58896;-70
2022/11/22 06:46:35;;;;;;;50.60;30.10;;;;;;;1.52;100.00;96763.48;108072;1260;69831;-70
2022/11/22 06:49:04;;;;;;;39.50;23.90;;;;;;;2.01;100.00;96763.39;108016;1264;69544;-70
2022/11/22 06:51:33;;;;;;;40.50;23.90;;;;;;;2.58;100.00;96753.83;108007;1260;69238;-70
2022/11/22 06:54:03;;;;;;;36.80;22.80;;;;;;;3.22;100.00;96752.38;107950;1264;58902;-70
2022/11/22 06:56:38;;;;;;;30.10;20.10;;;;;;;3.84;100.00;96753.59;108006;1260;58905;-71
2022/11/22 06:59:08;;;;;;;26.10;18.00;;;;;;;4.45;100.00;96752.14;108028;1262;69662;-70
2022/11/22 07:01:37;;;;;;;26.60;18.10;;;;;;;5.01;99.92;96744.67;108005;1264;69846;-70
2022/11/22 07:04:07;;;;;;;22.50;15.50;;;;;;;5.59;100.00;96749.73;107994;1265;69283;-70
2022/11/22 07:06:37;;;;;;;19.20;13.50;;;;;;;6.04;100.00;96749.92;107994;1262;58880;-70
2022/11/22 07:09:09;;;;;;;22.80;16.10;;;;;;;6.48;98.61;96747.19;107997;1264;58894;-70
2022/11/22 07:11:39;;;;;;;27.00;18.60;;;;;;;6.88;90.18;96748.15;108041;1266;68830;-70
2022/11/22 07:14:08;;;;;;;21.40;16.70;;;;;;;7.12;80.75;96754.83;107988;1266;69142;-70
2022/11/22 07:16:38;;;;;;;18.60;14.60;;;;;;;7.37;78.79;96752.94;108009;1260;69649;-70
2022/11/22 07:19:07;;;;;;;17.20;14.10;;;;;;;7.78;81.65;96759.33;107979;1264;58965;-70
2022/11/22 07:21:38;;;;;;;15.60;11.30;;;;;;;8.20;81.04;96760.29;107993;1266;58862;-70
2022/11/22 07:24:08;;;;;;;14.20;11.30;;;;;;;8.67;78.52;96761.33;107957;1264;69644;-70
2022/11/22 07:26:37;;;;;;;16.30;12.40;;;;;;;8.88;67.63;96756.80;108017;1266;68554;-70
2022/11/22 07:29:06;;;;;;;15.10;11.60;;;;;;;9.07;67.97;96760.88;107937;1260;69886;-70
2022/11/22 07:31:35;;;;;;;14.10;10.40;;;;;;;9.30;69.27;96766.29;108004;1266;58976;-70
2022/11/22 07:34:04;;;;;;;20.00;15.50;;;;;;;9.05;64.38;96762.23;108033;1265;58910;-70
2022/11/22 07:36:33;;;;;;;17.90;15.50;;;;;;;9.24;65.38;96759.60;107958;1264;71178;-70
2022/11/22 07:39:02;;;;;;;15.60;11.90;;;;;;;9.92;68.34;96761.00;108006;1266;68987;-71
2022/11/22 07:41:31;;;;;;;17.10;14.10;;;;;;;10.07;63.50;96757.52;107993;1260;69297;-71
2022/11/22 07:44:00;;;;;;;22.40;18.10;;;;;;;10.25;62.99;96756.95;108006;1266;58929;-70
2022/11/22 07:46:32;;;;;;;12.00;10.50;;;;;;;10.67;63.20;96754.46;107992;1260;58941;-71
2022/11/22 07:49:02;;;;;;;15.00;11.80;;;;;;;11.01;62.64;96760.16;108044;1262;69811;-71
2022/11/22 07:51:31;;;;;;;11.90;9.80;;;;;;;11.49;61.87;96758.72;108018;1264;69745;-70
2022/11/22 07:53:59;;;;;;;10.80;9.50;;;;;;;11.91;60.47;96761.13;108028;1264;69866;-71
2022/11/22 07:56:29;;;;;;;12.40;10.20;;;;;;;12.10;59.52;96766.27;108011;1264;58880;-70
2022/11/22 07:58:58;;;;;;;13.30;10.60;;;;;;;11.61;55.93;96762.88;108120;1260;58891;-71
2022/11/22 08:01:26;;;;;;;13.00;9.60;;;;;;;11.37;59.16;96767.05;108195;1260;70490;-70
2022/11/22 08:03:55;;;;;;;13.60;11.90;;;;;;;10.74;60.36;96770.48;108015;1264;68587;-71
2022/11/22 08:06:25;;;;;;;19.40;17.40;;;;;;;10.37;60.94;96775.59;108055;1265;69876;-70
2022/11/22 08:08:54;;;;;;;15.60;13.40;;;;;;;10.32;63.03;96773.94;108026;1264;58920;-70
2022/11/22 08:11:30;;;;;;;15.60;13.00;;;;;;;10.18;61.87;96777.89;107970;1266;58883;-70
2022/11/22 08:13:58;;;;;;;15.20;13.60;;;;;;;9.58;61.85;96775.69;108047;1260;68847;-69
2022/11/22 08:16:27;;;;;;;14.40;11.60;;;;;;;9.54;62.70;96775.16;108021;1266;68030;-70
2022/11/22 08:18:57;;;;;;;13.80;9.70;;;;;;;9.44;62.63;96771.56;107872;1263;69852;-70
2022/11/22 08:21:25;;;;;;;12.80;9.70;;;;;;;9.13;64.11;96770.50;108005;1262;58966;-70
2022/11/22 08:23:58;;;;;;;12.00;10.40;;;;;;;9.00;64.13;96767.38;108060;1264;58956;-70
2022/11/22 08:26:27;;;;;;;11.40;9.00;;;;;;;9.01;65.40;96767.95;107629;1266;492865;-71
2022/11/22 08:28:56;;;;;;;13.50;10.30;;;;;;;8.93;65.70;96766.45;108049;1262;69632;-71
2022/11/22 08:31:26;;;;;;;12.90;9.50;;;;;;;8.81;65.57;96769.98;108030;1262;69809;-72
2022/11/22 08:33:55;;;;;;;14.70;10.90;;;;;;;8.60;65.73;96776.95;108200;1262;59013;-72
2022/11/22 08:36:23;;;;;;;12.30;9.20;;;;;;;8.18;67.32;96784.35;107615;1262;58934;-70
2022/11/22 08:38:53;;;;;;;13.80;10.20;;;;;;;8.28;67.06;96784.84;108038;1262;71183;-72
2022/11/22 08:41:23;;;;;;;17.20;11.90;;;;;;;8.73;66.57;96784.53;108123;1262;68460;-71
2022/11/22 08:43:54;;;;;;;15.70;10.90;;;;;;;9.05;65.56;96785.53;108050;1262;69068;-71
2022/11/22 08:46:23;;;;;;;12.90;10.60;;;;;;;9.56;67.09;96790.77;108002;1266;58964;-71
2022/11/22 08:48:53;;;;;;;11.80;9.70;;;;;;;9.81;64.47;96792.81;107917;1261;58889;-71
2022/11/22 08:51:22;;;;;;;12.50;8.80;;;;;;;10.35;63.93;96796.15;107814;1266;70493;-71
2022/11/22 08:53:50;;;;;;;11.70;9.70;;;;;;;10.98;59.84;96789.74;107672;1266;69803;-71
2022/11/22 08:56:20;;;;;;;11.20;9.40;;;;;;;11.80;59.83;96787.55;107874;1262;68497;-70
2022/11/22 08:58:48;;;;;;;11.10;9.20;;;;;;;12.06;56.08;96788.79;107784;1262;58948;-72
2022/11/22 09:01:20;;;;;;;13.00;10.30;;;;;;;13.02;57.02;96785.51;107937;1262;58856;-71
2022/11/22 09:03:49;;;;;;;12.00;9.40;;;;;;;13.78;54.64;96788.77;107711;1262;71050;-73
2022/11/22 09:06:19;;;;;;;9.80;7.70;;;;;;;14.11;51.42;96785.58;107735;1265;69211;-70
2022/11/22 09:09:08;;;;;;;8.50;7.60;;;;;;;13.93;50.36;96782.70;107835;1266;69922;-71
2022/11/22 09:11:57;;;;;;;9.00;7.50;;;;;;;14.65;50.99;96784.46;107643;1263;58879;-70
2022/11/22 09:14:26;;;;;;;;;;;;;;;15.14;50.77;96781.85;107779;1266;58930;-71
2022/11/22 09:16:55;;;;;;;9.10;7.70;;;;;;;15.57;47.80;96781.64;107994;1262;70653;-71
2022/11/22 09:19:24;;;;;;;9.30;7.60;;;;;;;15.63;45.99;96781.59;107783;1266;69819;-72
2022/11/22 09:21:53;;;;;;;10.30;7.70;;;;;;;16.08;46.96;96786.88;107694;1266;69735;-71
2022/11/22 09:24:21;;;;;;;9.20;7.60;;;;;;;16.16;45.49;96785.17;107720;1262;58913;-72
2022/11/22 09:26:50;;;;;;;10.80;9.00;;;;;;;16.34;45.43;96783.64;107728;1262;58974;-71
2022/11/22 09:29:19;;;;;;;7.50;5.90;;;;;;;16.71;45.59;96784.51;107953;1261;71273;-72
2022/11/22 09:31:48;;;;;;;8.80;7.10;;;;;;;17.14;46.43;96781.72;107963;1261;68613;-71
2022/11/22 09:34:17;;;;;;;10.30;8.50;;;;;;;17.12;42.12;96780.60;107679;1266;69237;-70
2022/11/22 09:36:46;;;;;;;9.90;7.80;;;;;;;17.34;44.51;96780.27;107652;1263;58884;-73
2022/11/22 09:39:15;;;;;;;11.10;8.50;;;;;;;17.81;42.74;96777.67;107816;1266;58956;-72
2022/11/22 09:41:57;;;;;;;8.40;7.00;;;;;;;18.14;41.99;96779.30;107795;1266;70456;-71
2022/11/22 09:44:35;;;;;;;10.70;9.40;;;;;;;18.05;40.09;96782.18;107880;1263;69075;-71
2022/11/22 09:47:06;;;;;;;7.80;6.30;;;;;;;17.92;39.43;96777.69;107677;1266;69307;-71
2022/11/22 09:49:44;;;;;;;7.80;7.00;;;;;;;17.90;39.48;96774.61;107798;1266;58956;-71
2022/11/22 09:52:30;;;;;;;10.10;7.50;;;;;;;17.95;38.34;96765.55;107860;1262;58869;-72
2022/11/22 09:55:04;;;;;;;8.30;6.80;;;;;;;17.59;39.67;96761.25;107969;1266;69631;-72
2022/11/22 09:57:43;;;;;;;9.80;7.80;;;;;;;17.85;39.26;96754.83;107958;1262;69220;-72
2022/11/22 10:00:24;;;;;;;7.40;6.20;;;;;;;18.04;39.95;96754.60;107924;1261;69136;-72
2022/11/22 10:03:10;;;;;;;6.30;5.70;;;;;;;18.16;38.79;96745.38;107748;1266;58889;-72
2022/11/22 10:05:53;;;;;;;8.40;6.40;;;;;;;17.51;38.85;96744.03;107967;1262;58952;-72
2022/11/22 10:08:40;;;;;;;7.00;6.30;;;;;;;17.96;38.64;96731.38;107970;1266;71113;-72
2022/11/22 10:11:35;;;;;;;8.60;7.50;;;;;;;18.41;38.39;96725.67;108025;1266;69149;-70
2022/11/22 10:14:34;;;;;;;6.40;5.40;;;;;;;18.57;38.23;96715.21;107770;1262;69892;-73
2022/11/22 10:17:35;;;;;;;7.10;6.40;;;;;;;18.96;37.75;96711.69;107923;1262;58897;-72
2022/11/22 10:20:25;;;;;;;7.10;5.60;;;;;;;18.70;36.88;96710.10;107718;1266;58898;-71
2022/11/22 10:22:57;;;;;;;6.90;5.60;;;;;;;18.20;38.25;96707.16;107876;1262;69767;-73
2022/11/22 10:25:47;;;;;;;7.50;6.40;;;;;;;18.36;38.13;96701.21;108011;1262;69810;-73
2022/11/22 10:28:24;;;;;;;;;;;;;;;18.43;38.01;96694.94;107835;1262;68809;-73
2022/11/22 10:30:56;;;;;;;7.70;5.80;;;;;;;18.84;37.64;96683.89;107978;1266;58950;-71
2022/11/22 10:34:00;;;;;;;6.60;5.80;;;;;;;18.65;36.74;96676.38;107911;1266;58886;-70
2022/11/22 10:36:53;;;;;;;8.90;7.30;;;;;;;18.25;37.49;96667.70;107877;1261;71180;-72
2022/11/22 10:39:28;;;;;;;8.60;7.20;;;;;;;18.23;37.59;96660.29;107906;1261;69210;-72
2022/11/22 10:42:27;;;;;;;7.40;6.20;;;;;;;17.93;37.60;96663.87;107844;1266;69889;-72
2022/11/22 10:45:33;;;;;;;6.70;5.40;;;;;;;18.18;37.43;96661.31;107680;1266;59388;-71
2022/11/22 10:48:04;;;;;;;6.20;4.20;;;;;;;18.08;37.09;96654.54;107975;1266;58895;-72
2022/11/22 10:50:48;;;;;;;7.00;5.70;;;;;;;18.39;37.07;96649.27;107873;1263;70935;-72
2022/11/22 10:53:23;;;;;;;5.40;4.80;;;;;;;18.48;35.44;96641.94;107771;1262;68472;-72
2022/11/22 10:56:10;;;;;;;8.00;6.30;;;;;;;18.09;36.78;96647.35;107665;1266;68757;-72
2022/11/22 10:58:59;;;;;;;6.20;5.40;;;;;;;18.05;37.41;96657.02;107678;1266;58991;-72
2022/11/22 11:01:41;;;;;;;7.30;5.40;;;;;;;18.08;37.65;96651.20;107939;1265;58824;-71
2022/11/22 11:04:12;;;;;;;6.70;5.00;;;;;;;18.12;37.26;96643.54;107960;1262;70578;-71
2022/11/22 11:06:50;;;;;;;7.20;6.20;;;;;;;18.15;37.48;96639.88;107650;1262;69506;-73
2022/11/22 11:09:51;;;;;;;6.80;5.60;;;;;;;17.90;37.22;96638.02;107868;1262;69718;-73
2022/11/22 11:12:45;;;;;;;7.70;5.80;;;;;;;17.21;38.12;96640.66;107836;1266;58886;-73
2022/11/22 11:15:27;;;;;;;6.20;5.20;;;;;;;16.66;39.04;96639.30;107803;1265;58873;-71
2022/11/22 11:18:04;;;;;;;6.10;5.00;;;;;;;16.70;39.07;96635.23;107837;1262;70457;-72
2022/11/22 11:20:39;;;;;;;5.60;4.30;;;;;;;16.96;39.56;96636.25;107693;1266;69181;-71
2022/11/22 11:23:11;;;;;;;5.90;4.60;;;;;;;17.44;39.11;96631.71;107708;1262;70250;-74
2022/11/22 11:25:46;;;;;;;4.90;4.40;;;;;;;17.77;37.47;96627.45;107650;1266;58960;-73
2022/11/22 11:28:19;;;;;;;4.90;3.70;;;;;;;17.00;37.57;96629.23;107971;1266;58950;-73
2022/11/22 11:31:40;;;;;;;4.60;3.70;;;;;;;17.06;38.19;96629.48;107784;1261;70554;-74
2022/11/22 11:34:21;;;;;;;5.40;4.00;;;;;;;17.33;37.82;96627.47;108462;1266;69158;-73
2022/11/22 11:36:53;;;;;;;5.40;3.70;;;;;;;17.62;36.63;96620.48;107784;1261;70034;-73
2022/11/22 11:39:33;;;;;;;4.20;3.20;;;;;;;18.20;36.76;96610.88;107915;1266;58962;-72
2022/11/22 11:42:22;;;;;;;6.30;4.40;;;;;;;18.52;35.86;96607.31;107709;1267;58976;-73
2022/11/22 11:44:51;;;;;;;3.80;3.10;;;;;;;18.56;35.96;96604.04;107898;1262;71187;-73
2022/11/22 11:47:33;;;;;;;4.10;3.50;;;;;;;18.55;35.47;96602.75;107938;1261;69776;-73
2022/11/22 11:50:15;;;;;;;4.20;3.30;;;;;;;18.49;34.81;96604.33;107734;1261;69885;-73
2022/11/22 11:52:55;;;;;;;4.50;3.50;;;;;;;18.46;35.27;96606.08;107944;1266;58877;-71
2022/11/22 11:55:29;;;;;;;4.40;3.00;;;;;;;18.53;34.82;96609.85;107925;1261;58953;-71
2022/11/22 11:57:58;;;;;;;3.80;2.90;;;;;;;18.72;35.25;96609.16;107928;1266;71245;-72
2022/11/22 12:00:37;;;;;;;3.60;2.60;;;;;;;18.84;34.44;96611.06;107884;1266;69801;-72